Terminal Aerodrome Forecast
Issued by NWS Newport/Morehead City, NC

Home | Current Version | Previous Version | Graphics & Text | Print | Product List | Glossary On
Versions: 1 2 3 4 5 6 7 8 9 10 11 12 13 14 15 16
000
FTUS42 KMHX 251230 AAA
TAFEWN
TAF AMD
KEWN 251230Z 2513/2612 26006KT 4SM BR BKN006
     FM251330 26006KT P6SM SCT250
     FM260000 04007KT P6SM -RA OVC025
     FM260300 03012KT 2SM -RA BR OVC005=

USA.gov is the U.S. government's official web portal to all federal, state and local government web resources and services.